createdAt,value
2023-04-07T00:00:44.629Z,1.60
2023-04-07T00:01:44.709Z,1.70
2023-04-07T00:02:44.898Z,1.50
2023-04-07T00:03:44.865Z,1.70
2023-04-07T00:04:44.713Z,1.60
2023-04-07T00:05:44.712Z,1.80
2023-04-07T00:06:44.716Z,1.60
2023-04-07T00:07:55.158Z,1.80
2023-04-07T00:08:44.757Z,1.70
2023-04-07T00:09:44.765Z,1.70
2023-04-07T00:10:44.812Z,1.60
2023-04-07T00:11:44.803Z,1.70
2023-04-07T00:12:44.812Z,1.60
2023-04-07T00:13:44.839Z,1.90
2023-04-07T00:14:44.845Z,1.70
2023-04-07T00:15:44.900Z,1.80
2023-04-07T00:16:44.886Z,1.60
2023-04-07T00:17:44.914Z,1.60
2023-04-07T00:18:44.907Z,1.70
2023-04-07T00:19:44.936Z,1.70
2023-04-07T00:20:44.940Z,1.50
2023-04-07T00:21:44.967Z,1.70
2023-04-07T00:22:44.976Z,1.70
2023-04-07T00:23:45.022Z,1.80
2023-04-07T00:24:45.003Z,1.60
2023-04-07T00:25:45.047Z,1.60
2023-04-07T00:26:45.054Z,1.70
2023-04-07T00:27:45.048Z,1.60
2023-04-07T00:28:45.072Z,1.60
2023-04-07T00:29:45.081Z,1.60
2023-04-07T00:30:45.104Z,1.50
2023-04-07T00:31:45.145Z,1.90
2023-04-07T00:32:45.500Z,1.60
2023-04-07T00:33:45.150Z,1.80
2023-04-07T00:34:45.167Z,1.40
2023-04-07T00:35:45.229Z,1.60
2023-04-07T00:36:45.203Z,1.60
2023-04-07T00:37:45.214Z,1.70
2023-04-07T00:38:45.231Z,1.50
2023-04-07T00:39:45.251Z,1.80
2023-04-07T00:40:45.255Z,1.60
2023-04-07T00:41:45.269Z,1.60
2023-04-07T00:42:45.306Z,1.60
2023-04-07T00:43:45.300Z,1.70
2023-04-07T00:44:45.326Z,1.70
2023-04-07T00:45:45.339Z,1.60
2023-04-07T00:46:45.438Z,1.70
2023-04-07T00:47:45.409Z,1.60
2023-04-07T00:48:45.386Z,1.50
2023-04-07T00:49:45.409Z,1.60
2023-04-07T00:50:45.410Z,1.60
2023-04-07T00:51:45.426Z,1.70
2023-04-07T00:52:45.442Z,1.50
2023-04-07T00:53:45.459Z,1.50
2023-04-07T00:54:45.481Z,1.60
2023-04-07T00:55:45.497Z,1.60
2023-04-07T00:56:45.515Z,1.70
2023-04-07T00:57:46.337Z,1.50
2023-04-07T00:58:45.555Z,1.70
2023-04-07T00:59:45.561Z,1.70
2023-04-07T01:00:45.570Z,1.60
2023-04-07T01:01:45.684Z,1.50
2023-04-07T01:02:45.889Z,1.70
2023-04-07T01:03:45.868Z,1.60
2023-04-07T01:04:45.719Z,1.60
2023-04-07T01:05:46.003Z,1.70
2023-04-07T01:06:45.668Z,1.70
2023-04-07T01:07:45.677Z,1.60
2023-04-07T01:08:45.703Z,1.80
2023-04-07T01:09:45.707Z,1.60
2023-04-07T01:10:45.721Z,1.70
2023-04-07T01:11:45.846Z,1.50
2023-04-07T01:12:45.819Z,1.60
2023-04-07T01:13:45.776Z,1.60
2023-04-07T01:14:45.830Z,1.70
2023-04-07T01:15:45.851Z,1.80
2023-04-07T01:16:45.835Z,1.80
2023-04-07T01:17:45.867Z,1.50
2023-04-07T01:18:45.854Z,1.50
2023-04-07T01:19:45.868Z,1.60
2023-04-07T01:20:45.886Z,1.70
2023-04-07T01:21:45.918Z,1.80
2023-04-07T01:22:45.913Z,1.90
2023-04-07T01:23:45.932Z,1.70
2023-04-07T01:24:45.940Z,1.70
2023-04-07T01:25:45.965Z,1.60
2023-04-07T01:26:45.978Z,2.00
2023-04-07T01:27:45.989Z,1.90
2023-04-07T01:28:46.010Z,1.70
2023-04-07T01:29:46.034Z,1.80
2023-04-07T01:30:46.088Z,1.60
2023-04-07T01:31:46.124Z,1.60
2023-04-07T01:32:46.108Z,1.90
2023-04-07T01:33:46.083Z,1.90
2023-04-07T01:34:46.104Z,1.90
2023-04-07T01:35:46.111Z,1.70
2023-04-07T01:36:46.164Z,1.70
2023-04-07T01:37:46.152Z,2.00
2023-04-07T01:38:46.208Z,1.80
2023-04-07T01:39:46.184Z,2.20
2023-04-07T01:40:46.192Z,1.80
2023-04-07T01:41:46.214Z,1.90
2023-04-07T01:42:46.282Z,1.80
2023-04-07T01:43:46.458Z,1.90
2023-04-07T01:44:46.261Z,1.60
2023-04-07T01:45:46.294Z,1.80
2023-04-07T01:46:46.312Z,2.00
2023-04-07T01:47:46.336Z,1.80
2023-04-07T01:48:46.328Z,1.90
2023-04-07T01:49:46.337Z,1.90
2023-04-07T01:50:46.357Z,1.80
2023-04-07T01:51:46.374Z,1.60
2023-04-07T01:52:46.383Z,1.80
2023-04-07T01:53:46.401Z,1.70
2023-04-07T01:54:46.425Z,1.90
2023-04-07T01:55:46.445Z,1.80
2023-04-07T01:56:46.448Z,1.90
2023-04-07T01:57:46.481Z,1.80
2023-04-07T01:58:46.484Z,1.90
2023-04-07T01:59:46.501Z,1.70
2023-04-07T02:00:46.527Z,1.80
2023-04-07T02:01:46.645Z,1.80
2023-04-07T02:02:46.700Z,1.80
2023-04-07T02:03:46.615Z,1.50
2023-04-07T02:04:46.572Z,1.80
2023-04-07T02:05:46.596Z,1.90
2023-04-07T02:06:46.604Z,1.70
2023-04-07T02:07:46.624Z,1.80
2023-04-07T02:08:46.642Z,1.90
2023-04-07T02:09:46.661Z,1.70
2023-04-07T02:10:46.665Z,1.80
2023-04-07T02:11:46.680Z,1.70
2023-04-07T02:12:46.704Z,1.70
2023-04-07T02:13:46.714Z,1.80
2023-04-07T02:14:46.734Z,1.70
2023-04-07T02:15:46.760Z,1.80
2023-04-07T02:16:48.819Z,1.90
2023-04-07T02:17:46.792Z,1.80
2023-04-07T02:18:46.823Z,1.90
2023-04-07T02:19:46.815Z,1.70
2023-04-07T02:20:46.830Z,1.80
2023-04-07T02:21:46.852Z,1.80
2023-04-07T02:22:46.855Z,1.80
2023-04-07T02:23:46.894Z,2.00
2023-04-07T02:24:46.894Z,1.60
2023-04-07T02:25:46.899Z,1.80
2023-04-07T02:26:46.913Z,1.70
2023-04-07T02:27:46.941Z,1.70
2023-04-07T02:28:46.955Z,1.80
2023-04-07T02:29:46.968Z,1.60
2023-04-07T02:30:46.996Z,1.70
2023-04-07T02:31:47.039Z,1.70
2023-04-07T02:32:47.072Z,1.90
2023-04-07T02:33:47.034Z,1.70
2023-04-07T02:34:47.068Z,1.80
2023-04-07T02:35:47.060Z,1.80
2023-04-07T02:36:47.128Z,1.80
2023-04-07T02:37:47.086Z,2.00
2023-04-07T02:38:47.101Z,1.70
2023-04-07T02:39:47.127Z,1.80
2023-04-07T02:40:47.136Z,1.90
2023-04-07T02:41:47.147Z,1.80
2023-04-07T02:42:47.175Z,1.70
2023-04-07T02:43:47.183Z,1.80
2023-04-07T02:44:47.196Z,1.60
2023-04-07T02:45:47.321Z,1.70
2023-04-07T02:46:47.225Z,1.80
2023-04-07T02:47:47.330Z,1.90
2023-04-07T02:48:47.260Z,1.70
2023-04-07T02:49:47.272Z,1.60
2023-04-07T02:50:47.309Z,1.80
2023-04-07T02:51:47.304Z,1.70
2023-04-07T02:52:47.325Z,1.80
2023-04-07T02:53:47.333Z,1.70
2023-04-07T02:54:47.965Z,1.90
2023-04-07T02:55:47.363Z,1.90
2023-04-07T02:56:47.378Z,1.60
2023-04-07T02:57:47.404Z,1.80
2023-04-07T02:58:47.417Z,1.60
2023-04-07T02:59:47.433Z,1.70
2023-04-07T03:00:49.052Z,1.80
2023-04-07T03:01:47.606Z,1.80
2023-04-07T03:02:47.681Z,1.90
2023-04-07T03:03:47.612Z,2.00
2023-04-07T03:04:47.526Z,1.70
2023-04-07T03:05:47.520Z,1.90
2023-04-07T03:06:47.580Z,1.70
2023-04-07T03:07:47.560Z,1.70
2023-04-07T03:08:47.572Z,1.70
2023-04-07T03:09:47.601Z,1.80
2023-04-07T03:10:47.602Z,1.80
2023-04-07T03:11:47.619Z,1.70
2023-04-07T03:12:47.626Z,1.80
2023-04-07T03:13:47.647Z,1.70
2023-04-07T03:14:47.656Z,1.70
2023-04-07T03:15:47.672Z,1.70
2023-04-07T03:16:47.719Z,1.70
2023-04-07T03:17:47.770Z,1.70
2023-04-07T03:18:47.718Z,1.70
2023-04-07T03:19:47.744Z,1.50
2023-04-07T03:20:47.759Z,1.80
2023-04-07T03:21:47.767Z,1.60
2023-04-07T03:22:47.802Z,1.60
2023-04-07T03:23:47.805Z,1.60
2023-04-07T03:24:47.811Z,1.70
2023-04-07T03:25:48.776Z,1.50
2023-04-07T03:26:47.845Z,1.70
2023-04-07T03:27:47.861Z,1.70
2023-04-07T03:28:47.877Z,1.60
2023-04-07T03:29:47.915Z,1.80
2023-04-07T03:30:47.986Z,1.70
2023-04-07T03:31:47.922Z,1.70
2023-04-07T03:32:48.005Z,1.60
2023-04-07T03:33:47.954Z,1.70
2023-04-07T03:34:47.969Z,1.80
2023-04-07T03:35:48.024Z,1.50
2023-04-07T03:36:47.998Z,1.50
2023-04-07T03:37:48.021Z,1.60
2023-04-07T03:38:48.058Z,1.60
2023-04-07T03:39:48.700Z,1.70
2023-04-07T03:40:48.070Z,1.80
2023-04-07T03:41:48.088Z,1.60
2023-04-07T03:42:48.093Z,1.50
2023-04-07T03:43:48.126Z,1.60
2023-04-07T03:44:48.125Z,1.70
2023-04-07T03:45:48.180Z,1.70
2023-04-07T03:46:48.220Z,1.60
2023-04-07T03:47:48.189Z,1.70
2023-04-07T03:48:48.186Z,1.60
2023-04-07T03:49:48.221Z,1.70
2023-04-07T03:50:48.231Z,1.70
2023-04-07T03:51:48.232Z,2.10
2023-04-07T03:52:48.259Z,1.70
2023-04-07T03:53:48.274Z,1.70
2023-04-07T03:54:48.304Z,1.80
2023-04-07T03:55:48.304Z,1.60
2023-04-07T03:56:48.312Z,1.60
2023-04-07T03:57:48.333Z,1.70
2023-04-07T03:58:48.345Z,1.70
2023-04-07T03:59:48.363Z,1.60
2023-04-07T04:00:48.380Z,1.70
2023-04-07T04:01:48.437Z,1.70
2023-04-07T04:02:48.453Z,1.60
2023-04-07T04:03:48.577Z,1.70
2023-04-07T04:04:48.485Z,1.60
2023-04-07T04:05:48.467Z,1.90
2023-04-07T04:06:48.466Z,1.70
2023-04-07T04:07:48.490Z,1.90
2023-04-07T04:08:48.498Z,1.50
2023-04-07T04:09:48.518Z,1.90
2023-04-07T04:10:48.560Z,1.70
2023-04-07T04:11:48.548Z,1.90
2023-04-07T04:12:48.571Z,1.70
2023-04-07T04:13:48.586Z,1.70
2023-04-07T04:14:48.617Z,1.90
2023-04-07T04:15:48.659Z,1.60
2023-04-07T04:16:48.642Z,1.80
2023-04-07T04:17:48.659Z,1.70
2023-04-07T04:18:48.665Z,1.90
2023-04-07T04:19:48.680Z,1.90
2023-04-07T04:20:48.701Z,1.70
2023-04-07T04:21:48.705Z,1.80
2023-04-07T04:22:48.727Z,1.70
2023-04-07T04:23:48.732Z,1.70
2023-04-07T04:24:48.769Z,1.70
2023-04-07T04:25:48.764Z,1.70
2023-04-07T04:26:48.800Z,1.70
2023-04-07T04:27:48.802Z,1.90
2023-04-07T04:28:48.818Z,1.70
2023-04-07T04:29:48.837Z,1.80
2023-04-07T04:30:48.839Z,1.60
2023-04-07T04:31:48.957Z,1.80
2023-04-07T04:32:48.919Z,1.70
2023-04-07T04:33:48.892Z,1.90
2023-04-07T04:34:48.900Z,1.80
2023-04-07T04:35:48.919Z,1.70
2023-04-07T04:36:49.069Z,1.80
2023-04-07T04:37:48.978Z,1.60
2023-04-07T04:38:48.981Z,1.70
2023-04-07T04:39:48.984Z,1.60
2023-04-07T04:40:48.996Z,1.80
2023-04-07T04:41:49.023Z,1.90
2023-04-07T04:42:49.054Z,2.10
2023-04-07T04:43:49.047Z,1.80
2023-04-07T04:44:49.070Z,1.60
2023-04-07T04:45:49.081Z,1.90
2023-04-07T04:46:49.117Z,1.80
2023-04-07T04:47:49.131Z,1.80
2023-04-07T04:48:49.118Z,1.80
2023-04-07T04:49:49.132Z,1.80
2023-04-07T04:50:49.153Z,1.80
2023-04-07T04:51:49.163Z,1.70
2023-04-07T04:52:49.184Z,1.80
2023-04-07T04:53:49.197Z,1.70
2023-04-07T04:54:49.220Z,2.00
2023-04-07T04:55:49.230Z,1.80
2023-04-07T04:56:49.239Z,1.70
2023-04-07T04:57:49.263Z,1.60
2023-04-07T04:58:49.299Z,2.10
2023-04-07T04:59:49.444Z,1.80
2023-04-07T05:00:49.314Z,1.90
2023-04-07T05:01:49.355Z,1.60
2023-04-07T05:02:49.614Z,1.90
2023-04-07T05:03:49.453Z,1.90
2023-04-07T05:04:49.714Z,1.90
2023-04-07T05:05:49.388Z,1.90
2023-04-07T05:06:49.392Z,1.80
2023-04-07T05:07:49.423Z,1.80
2023-04-07T05:08:49.431Z,1.70
2023-04-07T05:09:49.440Z,1.70
2023-04-07T05:10:49.454Z,1.80
2023-04-07T05:11:49.477Z,1.90
2023-04-07T05:12:49.488Z,1.80
2023-04-07T05:13:49.512Z,1.90
2023-04-07T05:14:49.538Z,1.90
2023-04-07T05:15:49.574Z,1.80
2023-04-07T05:16:49.549Z,1.60
2023-04-07T05:17:49.615Z,1.90
2023-04-07T05:18:49.585Z,1.90
2023-04-07T05:19:49.595Z,1.80
2023-04-07T05:20:49.615Z,1.80
2023-04-07T05:21:49.638Z,1.80
2023-04-07T05:22:49.645Z,1.70
2023-04-07T05:23:50.001Z,1.90
2023-04-07T05:24:49.671Z,1.90
2023-04-07T05:25:49.697Z,1.90
2023-04-07T05:26:49.706Z,2.00
2023-04-07T05:27:49.715Z,2.00
2023-04-07T05:28:49.730Z,2.10
2023-04-07T05:29:49.754Z,1.90
2023-04-07T05:30:49.793Z,1.80
2023-04-07T05:31:49.810Z,1.70
2023-04-07T05:32:49.862Z,1.90
2023-04-07T05:33:50.169Z,2.00
2023-04-07T05:34:49.822Z,1.80
2023-04-07T05:35:49.856Z,1.90
2023-04-07T05:36:49.856Z,2.00
2023-04-07T05:37:49.881Z,2.00
2023-04-07T05:38:49.884Z,1.90
2023-04-07T05:39:49.913Z,2.00
2023-04-07T05:40:49.920Z,2.10
2023-04-07T05:41:49.931Z,2.00
2023-04-07T05:42:49.952Z,2.00
2023-04-07T05:43:50.149Z,2.00
2023-04-07T05:44:49.976Z,1.90
2023-04-07T05:45:50.008Z,1.90
2023-04-07T05:46:50.038Z,1.90
2023-04-07T05:47:50.096Z,2.00
2023-04-07T05:48:50.039Z,2.10
2023-04-07T05:49:50.056Z,2.00
2023-04-07T05:50:50.077Z,1.90
2023-04-07T05:51:50.093Z,2.20
2023-04-07T05:52:50.107Z,1.80
2023-04-07T05:53:50.379Z,2.00
2023-04-07T05:54:50.483Z,2.10
2023-04-07T05:55:50.151Z,2.10
2023-04-07T05:56:50.169Z,2.20
2023-04-07T05:57:50.184Z,2.20
2023-04-07T05:58:50.192Z,2.30
2023-04-07T05:59:50.216Z,2.00
2023-04-07T06:00:50.230Z,2.00
2023-04-07T06:01:50.279Z,2.00
2023-04-07T06:02:50.520Z,2.00
2023-04-07T06:03:50.457Z,2.10
2023-04-07T06:04:50.282Z,1.80
2023-04-07T06:05:50.311Z,2.00
2023-04-07T06:06:50.329Z,1.90
2023-04-07T06:07:50.342Z,2.00
2023-04-07T06:08:50.345Z,2.00
2023-04-07T06:09:50.374Z,2.20
2023-04-07T06:10:50.384Z,2.10
2023-04-07T06:11:50.399Z,2.00
2023-04-07T06:12:50.417Z,1.90
2023-04-07T06:13:50.775Z,1.90
2023-04-07T06:14:50.445Z,2.30
2023-04-07T06:15:50.452Z,1.80
2023-04-07T06:16:50.506Z,2.10
2023-04-07T06:17:50.528Z,2.00
2023-04-07T06:18:50.538Z,1.90
2023-04-07T06:19:50.519Z,1.80
2023-04-07T06:20:50.546Z,2.00
2023-04-07T06:21:50.549Z,2.00
2023-04-07T06:22:50.564Z,1.90
2023-04-07T06:23:50.933Z,1.80
2023-04-07T06:24:50.610Z,1.90
2023-04-07T06:25:50.615Z,2.00
2023-04-07T06:26:50.627Z,2.00
2023-04-07T06:27:50.644Z,2.00
2023-04-07T06:28:50.653Z,2.10
2023-04-07T06:29:50.679Z,2.10
2023-04-07T06:30:50.794Z,2.00
2023-04-07T06:31:50.709Z,2.00
2023-04-07T06:32:50.795Z,1.90
2023-04-07T06:33:51.256Z,1.90
2023-04-07T06:34:50.779Z,2.00
2023-04-07T06:35:50.757Z,2.00
2023-04-07T06:36:50.804Z,2.00
2023-04-07T06:37:50.795Z,2.00
2023-04-07T06:38:50.809Z,2.10
2023-04-07T06:39:50.817Z,2.20
2023-04-07T06:40:50.836Z,2.00
2023-04-07T06:41:50.856Z,2.20
2023-04-07T06:42:50.871Z,2.10
2023-04-07T06:43:50.884Z,2.10
2023-04-07T06:44:50.909Z,2.00
2023-04-07T06:45:50.945Z,2.00
2023-04-07T06:46:50.936Z,2.00
2023-04-07T06:47:50.963Z,1.90
2023-04-07T06:48:50.955Z,2.10
2023-04-07T06:49:51.180Z,2.30
2023-04-07T06:50:51.013Z,2.00
2023-04-07T06:51:51.010Z,2.20
2023-04-07T06:52:51.024Z,2.10
2023-04-07T06:53:51.032Z,2.20
2023-04-07T06:54:51.057Z,2.20
2023-04-07T06:55:51.070Z,2.50
2023-04-07T06:56:51.897Z,2.10
2023-04-07T06:57:51.109Z,2.00
2023-04-07T06:58:51.128Z,2.20
2023-04-07T06:59:51.134Z,2.30
2023-04-07T07:00:51.139Z,2.10
2023-04-07T07:01:51.228Z,2.00
2023-04-07T07:02:51.260Z,2.20
2023-04-07T07:03:51.512Z,2.30
2023-04-07T07:04:51.210Z,1.90
2023-04-07T07:05:51.226Z,2.20
2023-04-07T07:06:51.247Z,2.10
2023-04-07T07:07:51.244Z,2.20
2023-04-07T07:08:51.269Z,2.00
2023-04-07T07:09:51.312Z,2.30
2023-04-07T07:10:51.299Z,2.20
2023-04-07T07:11:51.306Z,2.10
2023-04-07T07:12:51.349Z,2.30
2023-04-07T07:13:51.344Z,2.10
2023-04-07T07:14:51.359Z,2.10
2023-04-07T07:15:51.466Z,2.20
2023-04-07T07:16:51.385Z,2.10
2023-04-07T07:17:51.444Z,2.10
2023-04-07T07:18:51.465Z,2.10
2023-04-07T07:19:51.429Z,1.90
2023-04-07T07:20:51.451Z,2.20
2023-04-07T07:21:51.466Z,2.30
2023-04-07T07:22:51.504Z,2.20
2023-04-07T07:23:51.493Z,2.30
2023-04-07T07:24:51.514Z,2.20
2023-04-07T07:25:51.518Z,2.00
2023-04-07T07:26:51.544Z,2.10
2023-04-07T07:27:51.551Z,2.10
2023-04-07T07:28:51.595Z,2.10
2023-04-07T07:29:51.583Z,2.10
2023-04-07T07:30:51.645Z,2.20
2023-04-07T07:31:51.703Z,2.10
2023-04-07T07:32:51.653Z,2.00
2023-04-07T07:33:51.666Z,1.90
2023-04-07T07:34:51.663Z,2.10
2023-04-07T07:35:51.685Z,2.20
2023-04-07T07:36:51.689Z,2.10
2023-04-07T07:37:51.723Z,2.10
2023-04-07T07:38:51.739Z,2.10
2023-04-07T07:39:51.740Z,2.10
2023-04-07T07:40:51.769Z,2.20
2023-04-07T07:41:51.775Z,2.40
2023-04-07T07:42:51.780Z,2.20
2023-04-07T07:43:51.798Z,2.30
2023-04-07T07:44:51.808Z,2.10
2023-04-07T07:45:51.826Z,2.40
2023-04-07T07:46:51.985Z,2.10
2023-04-07T07:47:51.881Z,2.10
2023-04-07T07:48:51.877Z,2.10
2023-04-07T07:49:51.885Z,2.10
2023-04-07T07:50:51.906Z,2.40
2023-04-07T07:51:51.913Z,2.10
2023-04-07T07:52:51.934Z,2.10
2023-04-07T07:53:51.945Z,2.30
2023-04-07T07:54:51.979Z,2.20
2023-04-07T07:55:51.973Z,2.40
2023-04-07T07:56:51.999Z,2.40
2023-04-07T07:57:52.013Z,2.40
2023-04-07T07:58:52.020Z,2.20
2023-04-07T07:59:52.032Z,2.10
2023-04-07T08:00:52.049Z,2.30
2023-04-07T08:01:52.432Z,2.10
2023-04-07T08:02:52.121Z,2.50
2023-04-07T08:03:52.689Z,2.20
2023-04-07T08:04:52.134Z,2.10
2023-04-07T08:05:52.126Z,2.10
2023-04-07T08:06:52.144Z,2.50
2023-04-07T08:07:54.229Z,2.30
2023-04-07T08:08:52.185Z,2.30
2023-04-07T08:09:52.193Z,2.50
2023-04-07T08:10:52.229Z,2.30
2023-04-07T08:11:52.222Z,2.50
2023-04-07T08:12:52.238Z,2.30
2023-04-07T08:13:52.254Z,2.20
2023-04-07T08:14:52.270Z,2.40
2023-04-07T08:15:52.274Z,2.40
2023-04-07T08:16:52.302Z,2.30
2023-04-07T08:17:54.734Z,2.40
2023-04-07T08:18:52.323Z,2.30
2023-04-07T08:19:52.352Z,2.30
2023-04-07T08:20:52.361Z,2.40
2023-04-07T08:21:52.370Z,2.20
2023-04-07T08:22:52.395Z,2.30
2023-04-07T08:23:52.411Z,2.30
2023-04-07T08:24:52.418Z,2.20
2023-04-07T08:25:52.444Z,2.20
2023-04-07T08:26:52.477Z,2.40
2023-04-07T08:27:52.458Z,2.40
2023-04-07T08:28:52.478Z,2.40
2023-04-07T08:29:52.485Z,2.30
2023-04-07T08:30:52.502Z,2.30
2023-04-07T08:31:52.635Z,2.40
2023-04-07T08:32:52.576Z,2.50
2023-04-07T08:33:52.562Z,2.40
2023-04-07T08:34:52.560Z,2.30
2023-04-07T08:35:52.616Z,2.40
2023-04-07T08:36:52.594Z,2.20
2023-04-07T08:37:52.614Z,2.20
2023-04-07T08:38:52.628Z,2.30
2023-04-07T08:39:52.637Z,2.30
2023-04-07T08:40:52.662Z,2.30
2023-04-07T08:41:52.675Z,2.40
2023-04-07T08:42:52.739Z,2.30
2023-04-07T08:43:52.708Z,2.30
2023-04-07T08:44:52.718Z,2.30
2023-04-07T08:45:53.703Z,2.30
2023-04-07T08:46:52.803Z,2.70
2023-04-07T08:47:52.804Z,2.40
2023-04-07T08:48:52.779Z,2.30
2023-04-07T08:49:52.801Z,2.40
2023-04-07T08:50:52.997Z,2.40
2023-04-07T08:51:52.817Z,2.40
2023-04-07T08:52:52.835Z,2.40
2023-04-07T08:53:52.860Z,2.30
2023-04-07T08:54:52.863Z,2.40
2023-04-07T08:55:52.886Z,2.50
2023-04-07T08:56:52.901Z,2.40
2023-04-07T08:57:52.925Z,2.50
2023-04-07T08:58:52.948Z,2.20
2023-04-07T08:59:52.939Z,2.10
2023-04-07T09:00:52.997Z,2.40
2023-04-07T09:01:53.009Z,2.40
2023-04-07T09:02:53.033Z,2.20
2023-04-07T09:03:53.162Z,2.40
2023-04-07T09:04:53.025Z,2.50
2023-04-07T09:05:53.028Z,2.50
2023-04-07T09:06:53.054Z,2.40
2023-04-07T09:07:53.058Z,2.40
2023-04-07T09:08:53.885Z,2.40
2023-04-07T09:09:53.095Z,2.40
2023-04-07T09:10:53.110Z,2.60
2023-04-07T09:11:53.124Z,2.50
2023-04-07T09:12:53.132Z,2.40
2023-04-07T09:13:53.167Z,2.70
2023-04-07T09:14:53.182Z,2.50
2023-04-07T09:15:53.190Z,2.30
2023-04-07T09:16:53.356Z,2.50
2023-04-07T09:17:53.236Z,2.50
2023-04-07T09:18:53.223Z,2.40
2023-04-07T09:19:53.244Z,2.40
2023-04-07T09:20:53.251Z,2.30
2023-04-07T09:21:53.267Z,2.30
2023-04-07T09:22:53.293Z,2.40
2023-04-07T09:23:53.298Z,2.40
2023-04-07T09:24:53.312Z,2.40
2023-04-07T09:25:53.337Z,2.40
2023-04-07T09:26:53.354Z,2.20
2023-04-07T09:27:53.363Z,2.30
2023-04-07T09:28:53.373Z,2.30
2023-04-07T09:29:53.395Z,2.40
2023-04-07T09:30:53.441Z,2.50
2023-04-07T09:31:53.450Z,2.40
2023-04-07T09:32:53.455Z,2.50
2023-04-07T09:33:53.463Z,2.50
2023-04-07T09:34:53.470Z,2.60
2023-04-07T09:35:53.540Z,2.40
2023-04-07T09:36:53.499Z,2.40
2023-04-07T09:37:53.510Z,2.30
2023-04-07T09:38:53.529Z,2.40
2023-04-07T09:39:53.536Z,2.50
2023-04-07T09:40:53.948Z,2.50
2023-04-07T09:41:53.582Z,2.30
2023-04-07T09:42:53.584Z,2.40
2023-04-07T09:43:53.605Z,2.40
2023-04-07T09:44:53.626Z,2.50
2023-04-07T09:45:53.666Z,2.50
2023-04-07T09:46:53.674Z,2.30
2023-04-07T09:47:53.742Z,2.40
2023-04-07T09:48:53.672Z,2.50
2023-04-07T09:49:53.700Z,2.40
2023-04-07T09:50:53.709Z,2.40
2023-04-07T09:51:53.718Z,2.60
2023-04-07T09:52:53.938Z,2.70
2023-04-07T09:53:53.755Z,2.30
2023-04-07T09:54:53.771Z,2.40
2023-04-07T09:55:53.779Z,2.50
2023-04-07T09:56:53.802Z,2.50
2023-04-07T09:57:53.810Z,2.40
2023-04-07T09:58:53.839Z,2.40
2023-04-07T09:59:53.843Z,2.30
2023-04-07T10:00:53.897Z,2.30
2023-04-07T10:01:56.366Z,2.40
2023-04-07T10:02:53.988Z,2.30
2023-04-07T10:03:53.939Z,2.40
2023-04-07T10:04:53.917Z,2.60
2023-04-07T10:05:53.932Z,2.40
2023-04-07T10:06:53.950Z,2.40
2023-04-07T10:07:53.970Z,2.30
2023-04-07T10:08:53.989Z,2.50
2023-04-07T10:09:54.000Z,2.50
2023-04-07T10:10:54.014Z,2.60
2023-04-07T10:11:54.131Z,2.50
2023-04-07T10:12:54.060Z,2.60
2023-04-07T10:13:54.054Z,2.40
2023-04-07T10:14:54.066Z,2.50
2023-04-07T10:15:54.082Z,2.50
2023-04-07T10:16:54.158Z,2.50
2023-04-07T10:17:54.174Z,2.40
2023-04-07T10:18:54.153Z,2.60
2023-04-07T10:19:54.149Z,2.40
2023-04-07T10:20:54.167Z,2.40
2023-04-07T10:21:54.183Z,2.40
2023-04-07T10:22:54.192Z,2.50
2023-04-07T10:23:54.204Z,2.60
2023-04-07T10:24:54.217Z,2.60
2023-04-07T10:25:54.234Z,2.40
2023-04-07T10:26:54.248Z,2.40
2023-04-07T10:27:54.271Z,2.60
2023-04-07T10:28:54.277Z,2.40
2023-04-07T10:29:54.300Z,2.40
2023-04-07T10:30:54.333Z,2.40
2023-04-07T10:31:54.330Z,2.40
2023-04-07T10:32:54.485Z,2.40
2023-04-07T10:33:54.359Z,2.50
2023-04-07T10:34:54.399Z,2.70
2023-04-07T10:35:54.408Z,2.40
2023-04-07T10:36:54.405Z,2.50
2023-04-07T10:37:54.473Z,2.60
2023-04-07T10:38:54.434Z,2.60
2023-04-07T10:39:54.442Z,2.60
2023-04-07T10:40:54.465Z,2.40
2023-04-07T10:41:54.472Z,2.50
2023-04-07T10:42:54.497Z,2.40
2023-04-07T10:43:54.503Z,2.40
2023-04-07T10:44:54.525Z,2.60
2023-04-07T10:45:54.669Z,2.50
2023-04-07T10:46:54.547Z,2.40
2023-04-07T10:47:54.647Z,2.50
2023-04-07T10:48:54.578Z,2.50
2023-04-07T10:49:54.600Z,2.60
2023-04-07T10:50:54.632Z,2.50
2023-04-07T10:51:54.632Z,2.60
2023-04-07T10:52:54.636Z,2.30
2023-04-07T10:53:54.653Z,2.50
2023-04-07T10:54:54.673Z,2.40
2023-04-07T10:55:54.692Z,2.70
2023-04-07T10:56:54.706Z,2.30
2023-04-07T10:57:54.721Z,2.50
2023-04-07T10:58:54.734Z,2.60
2023-04-07T10:59:55.571Z,2.50
2023-04-07T11:00:54.757Z,2.50
2023-04-07T11:01:54.871Z,2.20
2023-04-07T11:02:55.047Z,2.40
2023-04-07T11:03:54.961Z,2.40
2023-04-07T11:04:54.914Z,2.30
2023-04-07T11:05:54.847Z,2.40
2023-04-07T11:06:54.865Z,2.30
2023-04-07T11:07:54.870Z,2.20
2023-04-07T11:08:54.882Z,2.40
2023-04-07T11:09:54.898Z,2.50
2023-04-07T11:10:54.905Z,2.60
2023-04-07T11:11:54.920Z,2.50
2023-04-07T11:12:54.943Z,2.60
2023-04-07T11:13:54.971Z,2.60
2023-04-07T11:14:54.980Z,2.30
2023-04-07T11:15:55.019Z,2.30
2023-04-07T11:16:54.997Z,2.60
2023-04-07T11:17:55.051Z,2.60
2023-04-07T11:18:55.024Z,2.30
2023-04-07T11:19:55.053Z,2.40
2023-04-07T11:20:55.054Z,2.40
2023-04-07T11:21:55.079Z,2.30
2023-04-07T11:22:55.110Z,2.40
2023-04-07T11:23:55.098Z,2.50
2023-04-07T11:24:55.116Z,2.60
2023-04-07T11:25:55.136Z,2.40
2023-04-07T11:26:55.143Z,2.30
2023-04-07T11:27:55.161Z,2.30
2023-04-07T11:28:55.172Z,2.20
2023-04-07T11:29:55.192Z,2.60
2023-04-07T11:30:55.276Z,2.40
2023-04-07T11:31:55.230Z,2.50
2023-04-07T11:32:55.277Z,2.30
2023-04-07T11:33:55.252Z,2.50
2023-04-07T11:34:55.271Z,2.20
2023-04-07T11:35:55.424Z,2.30
2023-04-07T11:36:55.302Z,2.20
2023-04-07T11:37:55.317Z,2.60
2023-04-07T11:38:55.345Z,2.60
2023-04-07T11:39:55.351Z,2.50
2023-04-07T11:40:55.352Z,2.20
2023-04-07T11:41:55.378Z,2.30
2023-04-07T11:42:55.390Z,2.30
2023-04-07T11:43:55.397Z,2.30
2023-04-07T11:44:55.424Z,2.50
2023-04-07T11:45:55.428Z,2.30
2023-04-07T11:46:55.504Z,2.30
2023-04-07T11:47:55.510Z,2.50
2023-04-07T11:48:55.474Z,2.50
2023-04-07T11:49:55.514Z,2.50
2023-04-07T11:50:55.503Z,2.50
2023-04-07T11:51:55.527Z,2.10
2023-04-07T11:52:55.540Z,2.30
2023-04-07T11:53:55.559Z,2.20
2023-04-07T11:54:55.583Z,2.30
2023-04-07T11:55:55.578Z,2.40
2023-04-07T11:56:55.651Z,2.30
2023-04-07T11:57:55.606Z,2.40
2023-04-07T11:58:55.630Z,2.20
2023-04-07T11:59:55.643Z,2.40
2023-04-07T12:00:55.653Z,2.20
2023-04-07T12:01:57.876Z,2.50
2023-04-07T12:02:55.900Z,2.40
2023-04-07T12:03:55.836Z,2.60
2023-04-07T12:04:55.753Z,2.50
2023-04-07T12:05:55.736Z,2.30
2023-04-07T12:06:55.739Z,2.20
2023-04-07T12:07:55.767Z,2.40
2023-04-07T12:08:55.780Z,2.40
2023-04-07T12:09:55.785Z,2.50
2023-04-07T12:10:55.819Z,2.40
2023-04-07T12:11:55.822Z,2.20
2023-04-07T12:12:58.151Z,2.50
2023-04-07T12:13:55.853Z,2.40
2023-04-07T12:14:55.859Z,2.30
2023-04-07T12:15:55.874Z,2.30
2023-04-07T12:16:55.918Z,2.20
2023-04-07T12:17:56.015Z,2.20
2023-04-07T12:18:55.928Z,2.40
2023-04-07T12:19:55.948Z,2.20
2023-04-07T12:20:55.960Z,2.30
2023-04-07T12:21:55.988Z,2.40
2023-04-07T12:22:55.975Z,2.50
2023-04-07T12:23:55.998Z,2.30
2023-04-07T12:24:56.008Z,2.10
2023-04-07T12:25:56.023Z,2.20
2023-04-07T12:26:56.056Z,2.30
2023-04-07T12:27:56.052Z,2.30
2023-04-07T12:28:56.084Z,2.20
2023-04-07T12:29:56.087Z,2.20
2023-04-07T12:30:56.098Z,2.20
2023-04-07T12:31:56.140Z,2.20
2023-04-07T12:32:56.158Z,2.20
2023-04-07T12:33:56.153Z,2.30
2023-04-07T12:34:56.159Z,2.20
2023-04-07T12:35:56.218Z,2.20
2023-04-07T12:36:56.194Z,2.20
2023-04-07T12:37:56.209Z,2.30
2023-04-07T12:38:56.224Z,2.20
2023-04-07T12:39:56.244Z,2.00
2023-04-07T12:40:56.251Z,2.10
2023-04-07T12:41:56.267Z,2.10
2023-04-07T12:42:56.310Z,2.30
2023-04-07T12:43:56.291Z,2.40
2023-04-07T12:44:56.306Z,2.30
2023-04-07T12:45:56.363Z,2.20
2023-04-07T12:46:56.343Z,2.10
2023-04-07T12:47:56.363Z,2.10
2023-04-07T12:48:56.372Z,2.20
2023-04-07T12:49:56.395Z,2.40
2023-04-07T12:50:56.399Z,2.20
2023-04-07T12:51:56.410Z,2.00
2023-04-07T12:52:56.433Z,2.20
2023-04-07T12:53:56.457Z,2.20
2023-04-07T12:54:56.462Z,2.10
2023-04-07T12:55:56.508Z,2.30
2023-04-07T12:56:56.484Z,2.10
2023-04-07T12:57:56.502Z,2.60
2023-04-07T12:58:56.551Z,2.20
2023-04-07T12:59:56.531Z,2.20
2023-04-07T13:00:56.577Z,2.20
2023-04-07T13:01:56.748Z,2.20
2023-04-07T13:02:56.718Z,2.30
2023-04-07T13:04:56.609Z,2.20
2023-04-07T13:05:56.627Z,2.30
2023-04-07T13:06:56.630Z,2.30
2023-04-07T13:07:56.659Z,2.10
2023-04-07T13:08:56.667Z,2.20
2023-04-07T13:09:56.676Z,2.20
2023-04-07T13:10:56.698Z,2.30
2023-04-07T13:11:56.706Z,2.20
2023-04-07T13:12:56.728Z,2.20
2023-04-07T13:13:58.542Z,2.20
2023-04-07T13:15:00.083Z,2.10
2023-04-07T13:15:56.772Z,2.30
2023-04-07T13:16:56.815Z,2.20
2023-04-07T13:17:56.853Z,1.90
2023-04-07T13:18:56.814Z,2.40
2023-04-07T13:19:56.841Z,1.90